createdAt,value
2023-03-29T00:00:14.418Z,5.75
2023-03-29T00:02:43.099Z,5.79
2023-03-29T00:05:12.235Z,5.73
2023-03-29T00:07:40.340Z,5.68
2023-03-29T00:10:10.066Z,5.70
2023-03-29T00:12:39.356Z,5.81
2023-03-29T00:15:09.124Z,5.77
2023-03-29T00:17:38.246Z,5.73
2023-03-29T00:20:10.038Z,5.65
2023-03-29T00:22:39.764Z,5.50
2023-03-29T00:25:08.151Z,5.53
2023-03-29T00:27:36.130Z,5.48
2023-03-29T00:30:05.481Z,5.58
2023-03-29T00:32:33.770Z,5.55
2023-03-29T00:35:05.029Z,5.47
2023-03-29T00:37:32.920Z,5.37
2023-03-29T00:40:01.046Z,5.30
2023-03-29T00:42:29.139Z,5.24
2023-03-29T00:45:03.846Z,5.31
2023-03-29T00:47:36.082Z,5.24
2023-03-29T00:50:09.404Z,5.19
2023-03-29T00:52:38.987Z,5.12
2023-03-29T00:55:12.213Z,5.04
2023-03-29T00:57:41.576Z,5.02
2023-03-29T01:00:11.360Z,4.94
2023-03-29T01:02:40.927Z,4.95
2023-03-29T01:05:15.512Z,5.08
2023-03-29T01:07:48.024Z,5.05
2023-03-29T01:10:20.952Z,5.22
2023-03-29T01:12:52.527Z,5.20
2023-03-29T01:15:23.249Z,5.30
2023-03-29T01:17:53.615Z,5.38
2023-03-29T01:20:31.704Z,5.38
2023-03-29T01:23:15.857Z,5.25
2023-03-29T01:25:53.463Z,5.30
2023-03-29T01:28:28.365Z,5.31
2023-03-29T01:31:01.801Z,5.27
2023-03-29T01:33:35.036Z,5.21
2023-03-29T01:36:11.635Z,5.24
2023-03-29T01:38:43.353Z,5.23
2023-03-29T01:41:12.025Z,5.36
2023-03-29T01:43:47.120Z,5.43
2023-03-29T01:46:21.742Z,5.51
2023-03-29T01:48:52.641Z,5.61
2023-03-29T01:51:26.550Z,5.72
2023-03-29T01:54:01.083Z,5.81
2023-03-29T01:56:35.020Z,5.80
2023-03-29T01:59:08.331Z,5.79
2023-03-29T02:01:49.288Z,5.59
2023-03-29T02:04:20.927Z,5.61
2023-03-29T02:06:51.200Z,5.35
2023-03-29T02:09:18.937Z,5.50
2023-03-29T02:11:47.596Z,5.51
2023-03-29T02:14:16.916Z,5.44
2023-03-29T02:16:46.111Z,5.28
2023-03-29T02:19:15.229Z,5.40
2023-03-29T02:21:49.097Z,5.49
2023-03-29T02:24:20.050Z,5.35
2023-03-29T02:26:48.546Z,5.30
2023-03-29T02:29:17.976Z,5.28
2023-03-29T02:31:50.398Z,5.50
2023-03-29T02:34:24.412Z,5.55
2023-03-29T02:36:56.551Z,5.45
2023-03-29T02:39:26.244Z,5.42
2023-03-29T02:41:56.033Z,5.33
2023-03-29T02:44:28.342Z,5.13
2023-03-29T02:46:59.069Z,5.21
2023-03-29T02:49:27.966Z,5.32
2023-03-29T02:52:00.213Z,5.30
2023-03-29T02:54:31.479Z,5.38
2023-03-29T02:57:02.545Z,5.26
2023-03-29T02:59:31.790Z,5.33
2023-03-29T03:02:00.005Z,5.34
2023-03-29T03:04:29.537Z,5.23
2023-03-29T03:06:57.281Z,5.28
2023-03-29T03:09:25.018Z,5.34
2023-03-29T03:11:54.055Z,5.21
2023-03-29T03:14:23.177Z,5.26
2023-03-29T03:16:52.809Z,5.35
2023-03-29T03:19:21.197Z,5.26
2023-03-29T03:21:50.982Z,5.24
2023-03-29T03:24:18.777Z,5.21
2023-03-29T03:26:47.211Z,5.21
2023-03-29T03:29:15.438Z,5.13
2023-03-29T03:32:05.396Z,4.98
2023-03-29T03:34:55.394Z,5.00
2023-03-29T03:37:26.026Z,4.89
2023-03-29T03:39:53.967Z,5.04
2023-03-29T03:42:21.697Z,5.07
2023-03-29T03:44:49.975Z,5.12
2023-03-29T03:47:38.287Z,5.08
2023-03-29T03:50:33.620Z,5.45
2023-03-29T03:53:01.930Z,5.29
2023-03-29T03:55:44.614Z,5.16
2023-03-29T03:58:16.496Z,5.00
2023-03-29T04:00:45.156Z,4.97
2023-03-29T04:03:49.787Z,4.80
2023-03-29T04:06:19.764Z,4.88
2023-03-29T04:09:10.150Z,5.08
2023-03-29T04:11:40.929Z,5.25
2023-03-29T04:14:09.392Z,5.12
2023-03-29T04:16:57.394Z,5.14
2023-03-29T04:19:45.282Z,5.12
2023-03-29T04:22:13.241Z,4.98
2023-03-29T04:24:40.978Z,4.87
2023-03-29T04:27:29.556Z,5.00
2023-03-29T04:29:58.338Z,5.12
2023-03-29T04:32:42.850Z,5.18
2023-03-29T04:35:12.880Z,5.19
2023-03-29T04:37:41.776Z,5.19
2023-03-29T04:40:14.116Z,5.30
2023-03-29T04:42:53.455Z,5.25
2023-03-29T04:45:21.890Z,5.10
2023-03-29T04:48:16.406Z,5.09
2023-03-29T04:50:48.376Z,5.06
2023-03-29T04:53:18.167Z,4.96
2023-03-29T04:55:47.545Z,4.90
2023-03-29T04:58:24.384Z,4.90
2023-03-29T05:00:56.418Z,4.90
2023-03-29T05:03:30.353Z,4.93
2023-03-29T05:06:08.706Z,4.90
2023-03-29T05:08:39.474Z,4.88
2023-03-29T05:11:19.606Z,4.95
2023-03-29T05:13:48.081Z,5.03
2023-03-29T05:16:16.629Z,5.13
2023-03-29T05:18:45.082Z,5.05
2023-03-29T05:21:14.188Z,5.05
2023-03-29T05:23:44.827Z,5.06
2023-03-29T05:26:18.488Z,5.04
2023-03-29T05:28:51.815Z,4.98
2023-03-29T05:31:19.900Z,5.10
2023-03-29T05:33:51.924Z,5.13
2023-03-29T05:36:21.578Z,5.17
2023-03-29T05:38:51.223Z,5.28
2023-03-29T05:41:21.272Z,5.27
2023-03-29T05:43:48.932Z,5.36
2023-03-29T05:46:16.955Z,5.35
2023-03-29T05:48:50.219Z,5.42
2023-03-29T05:51:18.990Z,5.46
2023-03-29T05:53:48.500Z,5.52
2023-03-29T05:56:16.987Z,5.38
2023-03-29T05:58:46.480Z,5.45
2023-03-29T06:01:14.825Z,5.37
2023-03-29T06:03:57.381Z,5.37
2023-03-29T06:06:30.629Z,5.41
2023-03-29T06:09:01.288Z,5.40
2023-03-29T06:11:49.418Z,5.38
2023-03-29T06:14:24.840Z,5.45
2023-03-29T06:17:02.922Z,5.40
2023-03-29T06:19:30.790Z,5.48
2023-03-29T06:21:58.657Z,5.53
2023-03-29T06:24:29.999Z,5.53
2023-03-29T06:27:04.239Z,5.53
2023-03-29T06:29:32.198Z,5.49
2023-03-29T06:32:00.182Z,5.56
2023-03-29T06:34:46.003Z,5.53
2023-03-29T06:37:53.655Z,5.59
2023-03-29T06:40:32.481Z,5.63
2023-03-29T06:43:00.420Z,5.75
2023-03-29T06:45:50.870Z,5.92
2023-03-29T06:48:26.336Z,5.94
2023-03-29T06:50:54.567Z,5.87
2023-03-29T06:53:26.245Z,6.00
2023-03-29T06:56:01.068Z,6.24
2023-03-29T06:58:47.401Z,6.36
2023-03-29T07:01:37.826Z,6.31
2023-03-29T07:04:17.798Z,6.40
2023-03-29T07:07:19.671Z,6.57
2023-03-29T07:09:54.122Z,6.53
2023-03-29T07:12:59.519Z,6.55
2023-03-29T07:15:28.695Z,6.50
2023-03-29T07:18:15.356Z,6.48
2023-03-29T07:20:43.125Z,6.49
2023-03-29T07:23:11.856Z,6.63
2023-03-29T07:25:40.943Z,6.70
2023-03-29T07:28:11.176Z,6.57
2023-03-29T07:30:39.148Z,6.58
2023-03-29T07:33:16.301Z,6.56
2023-03-29T07:35:51.889Z,6.51
2023-03-29T07:38:20.474Z,6.52
2023-03-29T07:40:57.787Z,6.53
2023-03-29T07:43:45.559Z,6.57
2023-03-29T07:46:14.864Z,6.72
2023-03-29T07:48:42.772Z,6.80
2023-03-29T07:51:13.795Z,6.84
2023-03-29T07:53:46.369Z,6.90
2023-03-29T07:56:32.703Z,7.01
2023-03-29T07:59:22.244Z,6.96
2023-03-29T08:01:59.210Z,7.09
2023-03-29T08:04:32.239Z,7.08
2023-03-29T08:07:21.003Z,6.96
2023-03-29T08:10:09.095Z,6.82
2023-03-29T08:12:55.590Z,6.89
2023-03-29T08:15:34.811Z,6.92
2023-03-29T08:18:02.575Z,7.00
2023-03-29T08:20:30.707Z,7.10
2023-03-29T08:23:02.812Z,7.08
2023-03-29T08:25:47.385Z,7.07
2023-03-29T08:28:16.358Z,7.12
2023-03-29T08:30:52.791Z,7.16
2023-03-29T08:33:20.692Z,7.23
2023-03-29T08:35:55.293Z,7.28
2023-03-29T08:38:27.801Z,7.31
2023-03-29T08:40:56.392Z,7.19
2023-03-29T08:43:54.544Z,7.27
2023-03-29T08:46:42.327Z,7.19
2023-03-29T08:49:30.029Z,7.33
2023-03-29T08:52:01.947Z,7.38
2023-03-29T08:54:37.942Z,7.32
2023-03-29T08:57:31.826Z,7.29
2023-03-29T09:00:10.477Z,7.44
2023-03-29T09:02:44.106Z,7.67
2023-03-29T09:05:21.158Z,7.64
2023-03-29T09:08:16.022Z,7.84
2023-03-29T09:10:47.780Z,7.87
2023-03-29T09:13:28.653Z,7.99
2023-03-29T09:16:07.535Z,8.01
2023-03-29T09:18:55.435Z,8.33
2023-03-29T09:21:31.422Z,8.45
2023-03-29T09:24:23.465Z,8.40
2023-03-29T09:27:04.014Z,8.47
2023-03-29T09:29:47.379Z,8.50
2023-03-29T09:32:21.486Z,8.58
2023-03-29T09:35:04.294Z,8.68
2023-03-29T09:37:35.181Z,8.74
2023-03-29T09:40:11.228Z,8.78
2023-03-29T09:43:04.195Z,8.86
2023-03-29T09:45:32.248Z,8.95
2023-03-29T09:48:07.787Z,8.93
2023-03-29T09:50:42.961Z,8.82
2023-03-29T09:53:12.340Z,8.78
2023-03-29T09:55:47.803Z,8.90
2023-03-29T09:58:28.039Z,8.86
2023-03-29T10:00:59.944Z,8.85
2023-03-29T10:03:31.178Z,8.81
2023-03-29T10:06:12.190Z,8.83
2023-03-29T10:08:47.915Z,8.81
2023-03-29T10:11:23.208Z,8.93
2023-03-29T10:13:54.939Z,8.87
2023-03-29T10:16:24.091Z,8.90
2023-03-29T10:18:52.365Z,9.09
2023-03-29T10:21:22.072Z,9.06
2023-03-29T10:23:51.162Z,9.17
2023-03-29T10:26:27.863Z,9.14
2023-03-29T10:29:00.257Z,9.11
2023-03-29T10:31:31.167Z,9.34
2023-03-29T10:34:02.747Z,9.56
2023-03-29T10:36:32.210Z,9.50
2023-03-29T10:39:05.611Z,9.46
2023-03-29T10:41:35.990Z,9.56
2023-03-29T10:44:04.973Z,9.60
2023-03-29T10:46:36.621Z,9.65
2023-03-29T10:49:10.314Z,9.53
2023-03-29T10:51:45.604Z,9.48
2023-03-29T10:54:17.220Z,9.62
2023-03-29T10:56:52.319Z,9.43
2023-03-29T10:59:28.496Z,9.49
2023-03-29T11:02:21.634Z,9.60
2023-03-29T11:04:56.753Z,9.66
2023-03-29T11:07:31.690Z,9.63
2023-03-29T11:10:08.068Z,9.69
2023-03-29T11:12:44.854Z,9.67
2023-03-29T11:15:27.311Z,9.76
2023-03-29T11:18:11.332Z,9.91
2023-03-29T11:20:45.743Z,10.01
2023-03-29T11:23:31.366Z,10.19
2023-03-29T11:26:09.691Z,10.00
2023-03-29T11:28:44.638Z,9.75
2023-03-29T11:31:24.308Z,9.63
2023-03-29T11:34:06.186Z,9.58
2023-03-29T11:36:42.289Z,9.73
2023-03-29T11:39:18.479Z,9.90
2023-03-29T11:41:49.428Z,10.10
2023-03-29T11:44:21.199Z,10.07
2023-03-29T11:46:54.153Z,10.16
2023-03-29T11:49:27.287Z,10.08
2023-03-29T11:52:00.380Z,9.99
2023-03-29T11:54:40.150Z,10.10
2023-03-29T11:58:16.785Z,10.16
2023-03-29T12:00:48.966Z,10.38
2023-03-29T12:03:22.405Z,10.35
2023-03-29T12:05:52.918Z,10.43
2023-03-29T12:08:26.638Z,10.65
2023-03-29T12:11:05.174Z,10.45
2023-03-29T12:13:37.839Z,10.37
2023-03-29T12:16:14.191Z,10.34
2023-03-29T12:18:45.329Z,10.19
2023-03-29T12:21:17.061Z,10.22
2023-03-29T12:23:47.283Z,10.33
2023-03-29T12:26:30.185Z,10.23
2023-03-29T12:29:12.803Z,10.11
2023-03-29T12:31:52.055Z,9.93
2023-03-29T12:34:36.240Z,10.02
2023-03-29T12:37:46.969Z,10.05
2023-03-29T12:40:42.955Z,9.98
2023-03-29T12:43:51.663Z,9.92
2023-03-29T12:46:21.513Z,10.00
2023-03-29T12:48:54.188Z,10.05
2023-03-29T12:51:28.025Z,10.07
2023-03-29T12:54:03.428Z,9.94
2023-03-29T12:56:37.760Z,9.91
2023-03-29T12:59:27.489Z,9.89
2023-03-29T13:02:01.648Z,9.92
2023-03-29T13:04:39.774Z,9.93
2023-03-29T13:07:15.163Z,10.05
2023-03-29T13:09:51.086Z,10.04
2023-03-29T13:12:26.749Z,10.17
2023-03-29T13:14:58.825Z,10.22
2023-03-29T13:17:35.082Z,10.58
2023-03-29T13:20:19.449Z,10.68
2023-03-29T13:22:58.145Z,10.78
2023-03-29T13:25:43.651Z,10.95
2023-03-29T13:28:19.665Z,10.92
2023-03-29T13:30:58.242Z,11.14
2023-03-29T13:33:45.677Z,10.96
2023-03-29T13:36:22.780Z,10.98
2023-03-29T13:38:54.131Z,11.11
2023-03-29T13:41:44.724Z,11.26
2023-03-29T13:44:27.122Z,11.19
2023-03-29T13:47:06.533Z,11.14
2023-03-29T13:49:36.648Z,11.12
2023-03-29T13:52:16.203Z,11.13
2023-03-29T13:54:51.749Z,11.24
2023-03-29T13:57:21.369Z,11.27
2023-03-29T13:59:57.441Z,11.17
2023-03-29T14:02:41.976Z,11.23
2023-03-29T14:05:14.397Z,11.22
2023-03-29T14:07:47.269Z,11.06
2023-03-29T14:10:17.875Z,10.96
2023-03-29T14:12:47.218Z,11.03
2023-03-29T14:15:24.564Z,11.01
2023-03-29T14:18:00.679Z,10.95
2023-03-29T14:20:31.002Z,11.00
2023-03-29T14:22:58.929Z,10.97
2023-03-29T14:25:27.227Z,10.97
2023-03-29T14:27:55.330Z,11.09
2023-03-29T14:30:28.256Z,11.24
2023-03-29T14:32:58.043Z,11.24
2023-03-29T14:35:33.504Z,11.22
2023-03-29T14:38:03.877Z,11.24
2023-03-29T14:40:34.237Z,11.31
2023-03-29T14:43:08.027Z,11.37
2023-03-29T14:45:37.597Z,11.31
2023-03-29T14:48:08.024Z,11.36
2023-03-29T14:50:36.587Z,11.26
2023-03-29T14:53:06.364Z,11.25
2023-03-29T14:55:36.807Z,11.30
2023-03-29T14:58:05.311Z,11.25
2023-03-29T15:00:42.554Z,11.10
2023-03-29T15:03:16.904Z,11.13
2023-03-29T15:05:50.924Z,11.25
2023-03-29T15:08:30.949Z,11.26
2023-03-29T15:11:00.554Z,11.33
2023-03-29T15:13:29.938Z,11.35
2023-03-29T15:16:05.821Z,11.21
2023-03-29T15:18:40.256Z,11.17
2023-03-29T15:21:10.130Z,11.21
2023-03-29T15:23:40.765Z,11.21
2023-03-29T15:26:14.226Z,11.26
2023-03-29T15:28:50.581Z,11.29
2023-03-29T15:31:23.697Z,11.29
2023-03-29T15:34:04.759Z,11.33
2023-03-29T15:36:35.976Z,11.43
2023-03-29T15:39:04.792Z,11.50
2023-03-29T15:41:33.270Z,11.60
2023-03-29T15:44:01.693Z,11.78
2023-03-29T15:46:29.655Z,11.72
2023-03-29T15:49:00.308Z,11.70
2023-03-29T15:51:28.883Z,11.73
2023-03-29T15:53:57.244Z,11.83
2023-03-29T15:56:27.166Z,12.16
2023-03-29T15:58:55.412Z,12.14
2023-03-29T16:01:33.777Z,12.16
2023-03-29T16:04:04.536Z,11.98
2023-03-29T16:06:34.491Z,12.04
2023-03-29T16:09:02.416Z,11.97
2023-03-29T16:11:30.532Z,11.88
2023-03-29T16:13:59.013Z,11.87
2023-03-29T16:16:27.074Z,12.10
2023-03-29T16:18:55.425Z,12.25
2023-03-29T16:21:29.411Z,12.28
2023-03-29T16:23:57.713Z,12.41
2023-03-29T16:26:26.722Z,12.22
2023-03-29T16:28:55.674Z,12.42
2023-03-29T16:31:27.145Z,12.41
2023-03-29T16:33:55.285Z,12.52
2023-03-29T16:36:28.181Z,12.22
2023-03-29T16:38:57.543Z,12.18
2023-03-29T16:41:27.270Z,11.94
2023-03-29T16:43:56.604Z,11.89
2023-03-29T16:46:24.797Z,11.90
2023-03-29T16:48:53.661Z,12.07
2023-03-29T16:51:21.776Z,11.96
2023-03-29T16:53:52.742Z,11.95
2023-03-29T16:56:25.067Z,11.87
2023-03-29T16:58:56.469Z,11.87
2023-03-29T17:01:25.566Z,11.96
2023-03-29T17:03:54.116Z,11.79
2023-03-29T17:06:24.944Z,11.77
2023-03-29T17:08:59.077Z,11.68
2023-03-29T17:11:29.085Z,11.59
2023-03-29T17:13:57.252Z,11.59
2023-03-29T17:16:25.283Z,11.47
2023-03-29T17:18:53.264Z,11.41
2023-03-29T17:21:21.343Z,11.48
2023-03-29T17:23:49.096Z,11.37
2023-03-29T17:26:18.298Z,11.42
2023-03-29T17:28:46.199Z,11.41
2023-03-29T17:31:14.313Z,11.35
2023-03-29T17:33:42.665Z,11.23
2023-03-29T17:36:12.144Z,11.19
2023-03-29T17:38:40.610Z,11.31
2023-03-29T17:41:08.896Z,11.28
2023-03-29T17:43:38.381Z,11.29
2023-03-29T17:46:06.980Z,11.27
2023-03-29T17:48:35.407Z,11.21
2023-03-29T17:51:03.273Z,11.02
2023-03-29T17:53:31.142Z,11.14
2023-03-29T17:55:58.958Z,10.94
2023-03-29T17:58:27.170Z,10.93
2023-03-29T18:00:56.382Z,10.88
2023-03-29T18:03:24.499Z,10.87
2023-03-29T18:05:54.393Z,10.85
2023-03-29T18:08:22.768Z,10.89
2023-03-29T18:10:51.551Z,10.80
2023-03-29T18:13:25.526Z,10.86
2023-03-29T18:15:57.497Z,10.91
2023-03-29T18:18:26.886Z,10.87
2023-03-29T18:20:55.672Z,10.83
2023-03-29T18:23:24.662Z,10.85
2023-03-29T18:25:53.761Z,10.87
2023-03-29T18:28:23.097Z,10.82
2023-03-29T18:30:51.577Z,10.88
2023-03-29T18:33:20.710Z,10.93
2023-03-29T18:35:50.365Z,10.94
2023-03-29T18:38:20.156Z,10.73
2023-03-29T18:40:51.279Z,10.67
2023-03-29T18:43:20.371Z,10.61
2023-03-29T18:45:48.293Z,10.48
2023-03-29T18:48:16.952Z,10.42
2023-03-29T18:50:46.866Z,10.41
2023-03-29T18:53:15.401Z,10.39
2023-03-29T18:55:44.478Z,10.77
2023-03-29T18:58:13.373Z,10.68
2023-03-29T19:00:42.676Z,10.78
2023-03-29T19:03:11.619Z,10.75
2023-03-29T19:05:40.178Z,10.60
2023-03-29T19:08:10.190Z,10.57
2023-03-29T19:10:39.277Z,10.79
2023-03-29T19:13:07.343Z,11.06
2023-03-29T19:15:35.218Z,11.06
2023-03-29T19:18:03.746Z,11.05
2023-03-29T19:20:31.538Z,10.81
2023-03-29T19:22:59.348Z,10.82
2023-03-29T19:25:28.632Z,10.91
2023-03-29T19:27:56.368Z,11.06
2023-03-29T19:30:25.720Z,11.18
2023-03-29T19:32:54.072Z,11.29
2023-03-29T19:35:22.465Z,11.19
2023-03-29T19:37:50.909Z,11.03
2023-03-29T19:40:20.204Z,11.12
2023-03-29T19:42:50.119Z,10.90
2023-03-29T19:45:19.061Z,11.25
2023-03-29T19:47:47.971Z,10.92
2023-03-29T19:50:17.166Z,10.95
2023-03-29T19:52:45.588Z,10.85
2023-03-29T19:55:14.041Z,10.90
2023-03-29T19:57:42.757Z,10.98
2023-03-29T20:00:14.974Z,11.08
2023-03-29T20:02:44.217Z,11.10
2023-03-29T20:05:14.252Z,11.01
2023-03-29T20:07:42.998Z,11.07
2023-03-29T20:10:11.844Z,11.08
2023-03-29T20:12:39.937Z,11.06
2023-03-29T20:15:09.744Z,11.13
2023-03-29T20:17:41.069Z,11.08
2023-03-29T20:20:12.186Z,11.07
2023-03-29T20:22:46.338Z,11.08
2023-03-29T20:25:15.458Z,11.12
2023-03-29T20:27:44.189Z,11.08
2023-03-29T20:30:14.532Z,11.20
2023-03-29T20:32:47.087Z,11.08
2023-03-29T20:35:16.087Z,11.02
2023-03-29T20:37:44.157Z,11.18
2023-03-29T20:40:12.964Z,11.17
2023-03-29T20:42:41.389Z,11.15
2023-03-29T20:45:18.845Z,11.13
2023-03-29T20:47:58.491Z,11.16
2023-03-29T20:50:27.386Z,11.16
2023-03-29T20:52:57.336Z,11.14
2023-03-29T20:55:26.026Z,11.17
2023-03-29T20:57:56.565Z,11.16
2023-03-29T21:00:26.528Z,11.04
2023-03-29T21:02:59.097Z,10.97
2023-03-29T21:05:28.378Z,11.06
2023-03-29T21:07:56.904Z,11.11
2023-03-29T21:10:26.727Z,11.10
2023-03-29T21:13:00.519Z,11.07
2023-03-29T21:15:31.147Z,10.95
2023-03-29T21:18:01.278Z,10.97
2023-03-29T21:20:29.812Z,11.05
2023-03-29T21:22:58.493Z,10.94
2023-03-29T21:25:26.680Z,10.91
2023-03-29T21:27:54.424Z,11.04
2023-03-29T21:30:23.156Z,11.12
2023-03-29T21:32:51.458Z,11.01
2023-03-29T21:35:21.658Z,10.94
2023-03-29T21:37:50.387Z,10.94
2023-03-29T21:40:19.832Z,10.83
2023-03-29T21:42:48.336Z,10.80
2023-03-29T21:45:16.367Z,10.74
2023-03-29T21:47:44.900Z,10.81
2023-03-29T21:50:12.968Z,10.76
2023-03-29T21:52:42.888Z,10.75
2023-03-29T21:55:11.291Z,10.64
2023-03-29T21:57:40.262Z,10.69
2023-03-29T22:00:11.547Z,10.65
2023-03-29T22:02:41.321Z,10.65
2023-03-29T22:05:09.830Z,10.74
2023-03-29T22:07:39.315Z,10.54
2023-03-29T22:10:12.553Z,10.56
2023-03-29T22:12:41.333Z,10.63
2023-03-29T22:15:12.772Z,10.66
2023-03-29T22:17:42.956Z,10.59
2023-03-29T22:20:13.966Z,10.68
2023-03-29T22:22:46.160Z,10.64
2023-03-29T22:25:16.406Z,10.80
2023-03-29T22:27:46.078Z,10.76
2023-03-29T22:30:15.568Z,10.67
2023-03-29T22:32:44.455Z,10.71
2023-03-29T22:35:12.876Z,10.54
2023-03-29T22:37:42.786Z,10.71
2023-03-29T22:40:13.419Z,10.70
2023-03-29T22:42:43.660Z,10.66
2023-03-29T22:45:12.608Z,10.65
2023-03-29T22:47:41.687Z,10.74
2023-03-29T22:50:10.722Z,10.82
2023-03-29T22:52:39.366Z,10.79
2023-03-29T22:55:08.510Z,10.50
2023-03-29T22:57:36.593Z,10.24
2023-03-29T23:00:09.354Z,10.48
2023-03-29T23:02:38.369Z,10.47
2023-03-29T23:05:07.217Z,10.57
2023-03-29T23:07:36.461Z,10.76
2023-03-29T23:10:06.418Z,10.70
2023-03-29T23:12:36.470Z,10.58
2023-03-29T23:15:06.486Z,10.34
2023-03-29T23:17:35.289Z,10.29
2023-03-29T23:20:05.879Z,10.28
2023-03-29T23:22:34.222Z,10.29
2023-03-29T23:25:02.060Z,10.31
2023-03-29T23:27:30.490Z,10.34
2023-03-29T23:29:59.667Z,10.46
2023-03-29T23:32:29.802Z,10.57
2023-03-29T23:35:00.125Z,10.53
2023-03-29T23:37:28.557Z,10.37
2023-03-29T23:39:57.714Z,10.42
2023-03-29T23:42:25.793Z,10.59
2023-03-29T23:44:54.384Z,10.61
2023-03-29T23:47:22.252Z,10.43
2023-03-29T23:49:53.405Z,10.33
2023-03-29T23:52:23.214Z,10.45
2023-03-29T23:54:51.472Z,10.41
2023-03-29T23:57:19.892Z,10.24
2023-03-29T23:59:53.061Z,10.44
